Terminal Aerodrome Forecast
Issued by NWS North Platte, NE

Home | Current Version | Previous Version | Text Only | Print | Product List | Glossary Off
Versions: 1 2 3 4 5 6 7 8 9 10 11 12 13 14 15

000
FTUS43 KLBF 230800 AAB
TAFVTN
TAF AMD
KVTN 230854Z 2309/2406 32021G35KT 4SM -SN BR OVC015
      TEMPO 2310/2314 1 1/2SM -SN BLSN BR OVC010
     FM231800 33025G39KT 4SM -SN BLSN OVC011
     FM240100 33015G25KT P6SM OVC025=

USA.gov is the U.S. government's official web portal to all federal, state and local government web resources and services.